Time;durP1;ratioP1;P1;durP2;ratioP2;P2;SDS_P1;SDS_P2;PMS_P1;PMS_P2;Temp;Humidity;BMP_temperature;BMP_pressure;BME280_temperature;BME280_humidity;BME280_pressure;Samples;Min_cycle;Max_cycle;Signal;HPM_P1;HPM_P2
2022/04/03 00:01:04;;;;;;;1.55;1.30;;;;;;;;;;4937099;29;20179;-62
2022/04/03 00:03:30;;;;;;;2.30;1.60;;;;;;;;;;4937774;29;20172;-62
2022/04/03 00:05:56;;;;;;;1.60;0.95;;;;;;;;;;4937408;29;20176;-62
2022/04/03 00:08:22;;;;;;;4.13;2.10;;;;;;;;;;4937608;29;20168;-62
2022/04/03 00:10:48;;;;;;;3.17;1.67;;;;;;;;;;4937278;29;20180;-61
2022/04/03 00:13:14;;;;;;;1.30;1.20;;;;;;;;;;4937256;29;20612;-64
2022/04/03 00:15:42;;;;;;;1.80;1.38;;;;;;;;;;4937093;29;20252;-64
2022/04/03 00:18:08;;;;;;;1.13;1.00;;;;;;;;;;4936964;29;20196;-64
2022/04/03 00:20:38;;;;;;;3.10;0.90;;;;;;;;;;4937457;29;20169;-64
2022/04/03 00:23:04;;;;;;;1.35;1.00;;;;;;;;;;4936906;29;20256;-63
2022/04/03 00:25:30;;;;;;;2.75;1.30;;;;;;;;;;4937097;29;20193;-63
2022/04/03 00:27:56;;;;;;;2.10;1.10;;;;;;;;;;4936817;29;20165;-64
2022/04/03 00:30:22;;;;;;;1.98;1.00;;;;;;;;;;4936626;29;20187;-64
2022/04/03 00:32:48;;;;;;;1.73;1.00;;;;;;;;;;4936878;29;20503;-64
2022/04/03 00:35:14;;;;;;;1.55;0.95;;;;;;;;;;4936638;29;20237;-64
2022/04/03 00:37:40;;;;;;;1.35;1.10;;;;;;;;;;4936740;29;20181;-64
2022/04/03 00:40:07;;;;;;;1.65;0.88;;;;;;;;;;4936529;29;20180;-64
2022/04/03 00:42:36;;;;;;;1.20;1.00;;;;;;;;;;4936494;29;20634;-64
2022/04/03 00:45:03;;;;;;;1.73;0.82;;;;;;;;;;4936449;29;20521;-64
2022/04/03 00:47:30;;;;;;;2.65;1.35;;;;;;;;;;4936369;29;20175;-64
2022/04/03 00:49:57;;;;;;;1.95;1.10;;;;;;;;;;4936694;29;20200;-64
2022/04/03 00:52:23;;;;;;;2.72;1.65;;;;;;;;;;4936270;29;20200;-64
2022/04/03 00:54:49;;;;;;;6.10;2.30;;;;;;;;;;4936386;29;20256;-63
2022/04/03 00:57:15;;;;;;;5.03;2.67;;;;;;;;;;4936347;29;20527;-62
2022/04/03 00:59:44;;;;;;;5.78;2.30;;;;;;;;;;4936241;29;20494;-64
2022/04/03 01:02:10;;;;;;;3.85;2.10;;;;;;;;;;4936386;29;20177;-63
2022/04/03 01:04:39;;;;;;;4.13;2.17;;;;;;;;;;4936218;29;20252;-64
2022/04/03 01:07:05;;;;;;;3.60;1.98;;;;;;;;;;4936294;29;20177;-64
2022/04/03 01:09:31;;;;;;;3.88;2.13;;;;;;;;;;4936646;29;20169;-64
2022/04/03 01:11:57;;;;;;;3.40;1.65;;;;;;;;;;4936313;29;20274;-64
2022/04/03 01:14:36;;;;;;;1.48;1.10;;;;;;;;;;4936175;29;20248;-64
2022/04/03 01:17:02;;;;;;;2.53;1.30;;;;;;;;;;4936078;29;20275;-64
2022/04/03 01:19:28;;;;;;;2.22;1.55;;;;;;;;;;4936175;29;20173;-64
2022/04/03 01:21:54;;;;;;;2.03;1.63;;;;;;;;;;4936391;29;20192;-64
2022/04/03 01:24:21;;;;;;;1.35;0.90;;;;;;;;;;4936033;29;20193;-64
2022/04/03 01:26:47;;;;;;;1.48;0.80;;;;;;;;;;4936061;29;20173;-64
2022/04/03 01:29:13;;;;;;;2.08;1.50;;;;;;;;;;4936046;29;20228;-64
2022/04/03 01:31:39;;;;;;;2.10;1.17;;;;;;;;;;4936089;29;20169;-64
2022/04/03 01:34:05;;;;;;;1.75;1.00;;;;;;;;;;4937448;29;20204;-63
2022/04/03 01:36:31;;;;;;;3.60;0.90;;;;;;;;;;4937017;29;20219;-64
2022/04/03 01:38:57;;;;;;;2.35;1.00;;;;;;;;;;4935960;29;20669;-64
2022/04/03 01:41:23;;;;;;;2.40;1.50;;;;;;;;;;4936154;29;20243;-63
2022/04/03 01:43:49;;;;;;;2.03;1.58;;;;;;;;;;4938642;29;20251;-64
2022/04/03 01:46:15;;;;;;;2.40;1.52;;;;;;;;;;4940302;29;20618;-64
2022/04/03 01:48:40;;;;;;;2.53;0.90;;;;;;;;;;4939581;29;20169;-64
2022/04/03 01:51:06;;;;;;;1.95;1.40;;;;;;;;;;4939665;29;20176;-64
2022/04/03 01:53:32;;;;;;;1.83;1.20;;;;;;;;;;4939560;29;20506;-64
2022/04/03 01:55:59;;;;;;;2.47;1.20;;;;;;;;;;4939818;29;20644;-64
2022/04/03 01:58:25;;;;;;;2.17;1.20;;;;;;;;;;4939591;29;20179;-64
2022/04/03 02:00:51;;;;;;;3.35;1.00;;;;;;;;;;4939838;29;20169;-64
2022/04/03 02:03:17;;;;;;;2.40;1.00;;;;;;;;;;4939579;29;20602;-64
2022/04/03 02:05:43;;;;;;;2.30;1.17;;;;;;;;;;4939617;29;20184;-64
2022/04/03 02:08:09;;;;;;;5.10;1.30;;;;;;;;;;4939484;29;20165;-64
2022/04/03 02:10:35;;;;;;;3.58;1.70;;;;;;;;;;4939195;29;20256;-64
2022/04/03 02:13:01;;;;;;;4.00;1.30;;;;;;;;;;4939068;29;20200;-64
2022/04/03 02:15:28;;;;;;;1.48;1.13;;;;;;;;;;4939129;29;20256;-64
2022/04/03 02:17:54;;;;;;;3.65;1.23;;;;;;;;;;4938957;29;20192;-64
2022/04/03 02:20:19;;;;;;;2.88;1.10;;;;;;;;;;4939175;29;20251;-64
2022/04/03 02:22:45;;;;;;;2.97;1.20;;;;;;;;;;4938994;29;20192;-64
2022/04/03 02:25:13;;;;;;;2.22;1.20;;;;;;;;;;4939181;29;20677;-64
2022/04/03 02:27:39;;;;;;;5.00;1.33;;;;;;;;;;4939073;29;20641;-64
2022/04/03 02:30:08;;;;;;;1.70;1.30;;;;;;;;;;4938908;29;20180;-64
2022/04/03 02:32:34;;;;;;;2.40;1.25;;;;;;;;;;4939123;29;20184;-62
2022/04/03 02:35:00;;;;;;;2.38;1.20;;;;;;;;;;4938727;29;20173;-63
2022/04/03 02:37:26;;;;;;;2.22;1.08;;;;;;;;;;4938683;29;20605;-64
2022/04/03 02:39:52;;;;;;;1.83;1.30;;;;;;;;;;4938586;29;20211;-63
2022/04/03 02:42:18;;;;;;;2.13;1.25;;;;;;;;;;4938729;29;20204;-62
2022/04/03 02:44:44;;;;;;;1.75;1.13;;;;;;;;;;4938612;29;20189;-64
2022/04/03 02:47:10;;;;;;;1.38;1.13;;;;;;;;;;4938906;29;20227;-66
2022/04/03 02:49:36;;;;;;;3.13;1.08;;;;;;;;;;4938578;29;20168;-63
2022/04/03 02:52:03;;;;;;;2.58;1.23;;;;;;;;;;4938758;29;20503;-64
2022/04/03 02:54:30;;;;;;;2.10;1.20;;;;;;;;;;4938269;29;20552;-65
2022/04/03 02:56:56;;;;;;;3.25;1.40;;;;;;;;;;4938722;29;20184;-63
2022/04/03 02:59:22;;;;;;;2.45;1.10;;;;;;;;;;4938693;29;20232;-64
2022/04/03 03:01:48;;;;;;;1.85;1.20;;;;;;;;;;4938444;29;20547;-63
2022/04/03 03:04:14;;;;;;;1.60;1.15;;;;;;;;;;4938373;29;20701;-64
2022/04/03 03:06:40;;;;;;;1.65;1.23;;;;;;;;;;4938497;29;20287;-63
2022/04/03 03:09:06;;;;;;;4.15;1.27;;;;;;;;;;4938345;29;20578;-65
2022/04/03 03:11:32;;;;;;;3.15;1.50;;;;;;;;;;4938235;29;20601;-64
2022/04/03 03:13:59;;;;;;;1.48;1.33;;;;;;;;;;4937980;29;20183;-63
2022/04/03 03:16:25;;;;;;;2.45;1.38;;;;;;;;;;4938240;29;20173;-64
2022/04/03 03:18:51;;;;;;;2.38;1.27;;;;;;;;;;4938063;29;20168;-65
2022/04/03 03:21:16;;;;;;;3.38;1.30;;;;;;;;;;4938127;29;20187;-63
2022/04/03 03:23:42;;;;;;;2.55;1.10;;;;;;;;;;4937848;29;20246;-63
2022/04/03 03:26:09;;;;;;;4.10;1.20;;;;;;;;;;4938049;29;20601;-64
2022/04/03 03:28:35;;;;;;;2.13;1.10;;;;;;;;;;4937815;29;20169;-64
2022/04/03 03:31:01;;;;;;;2.50;1.00;;;;;;;;;;4938245;29;20504;-64
2022/04/03 03:33:27;;;;;;;2.10;1.15;;;;;;;;;;4938113;29;20248;-62
2022/04/03 03:35:55;;;;;;;1.27;0.95;;;;;;;;;;4937997;29;20812;-63
2022/04/03 03:38:20;;;;;;;1.25;1.00;;;;;;;;;;4938094;29;20173;-62
2022/04/03 03:40:47;;;;;;;1.40;0.93;;;;;;;;;;4937797;29;20169;-63
2022/04/03 03:43:13;;;;;;;1.65;1.08;;;;;;;;;;4937916;29;20176;-64
2022/04/03 03:45:39;;;;;;;1.30;0.90;;;;;;;;;;4937419;29;20196;-64
2022/04/03 03:48:05;;;;;;;1.35;0.80;;;;;;;;;;4937461;29;20215;-64
2022/04/03 03:50:31;;;;;;;0.98;0.82;;;;;;;;;;4937526;29;20497;-64
2022/04/03 03:52:57;;;;;;;1.58;1.00;;;;;;;;;;4937341;29;20621;-64
2022/04/03 03:55:24;;;;;;;1.77;1.02;;;;;;;;;;4937346;29;20228;-65
2022/04/03 03:57:50;;;;;;;1.60;1.02;;;;;;;;;;4937607;29;20232;-65
2022/04/03 04:00:16;;;;;;;1.38;0.93;;;;;;;;;;4937331;29;20172;-65
2022/04/03 04:02:42;;;;;;;2.53;1.10;;;;;;;;;;4937466;29;20557;-65
2022/04/03 04:05:09;;;;;;;3.65;1.00;;;;;;;;;;4936530;29;20201;-65
2022/04/03 04:07:53;;;;;;;1.45;1.00;;;;;;;;;;4937437;29;20509;-65
2022/04/03 04:10:20;;;;;;;2.63;1.10;;;;;;;;;;4937362;29;20153;-65
2022/04/03 04:12:46;;;;;;;3.65;0.88;;;;;;;;;;4937060;29;20173;-64
2022/04/03 04:15:12;;;;;;;2.53;1.02;;;;;;;;;;4937278;29;20177;-64
2022/04/03 04:17:39;;;;;;;1.40;1.30;;;;;;;;;;4937127;29;20627;-65
2022/04/03 04:20:06;;;;;;;2.70;1.20;;;;;;;;;;4936889;29;20472;-65
2022/04/03 04:22:32;;;;;;;1.52;1.02;;;;;;;;;;4936867;29;20204;-64
2022/04/03 04:24:58;;;;;;;1.40;1.10;;;;;;;;;;4937018;29;20237;-63
2022/04/03 04:27:24;;;;;;;1.00;0.90;;;;;;;;;;4936930;29;20175;-65
2022/04/03 04:29:50;;;;;;;2.22;1.23;;;;;;;;;;4936968;29;20255;-65
2022/04/03 04:32:16;;;;;;;1.33;1.08;;;;;;;;;;4937001;29;20175;-65
2022/04/03 04:34:42;;;;;;;2.65;1.08;;;;;;;;;;4936786;29;20176;-65
2022/04/03 04:37:08;;;;;;;3.00;1.33;;;;;;;;;;4936778;29;20605;-65
2022/04/03 04:39:34;;;;;;;2.75;1.80;;;;;;;;;;4936594;29;20609;-65
2022/04/03 04:42:00;;;;;;;2.47;1.25;;;;;;;;;;4936814;29;20180;-65
2022/04/03 04:44:25;;;;;;;2.50;1.17;;;;;;;;;;4936639;29;20220;-65
2022/04/03 04:46:52;;;;;;;2.63;1.48;;;;;;;;;;4936852;29;20505;-65
2022/04/03 04:49:18;;;;;;;2.15;1.35;;;;;;;;;;4936447;29;20189;-65
2022/04/03 04:51:44;;;;;;;2.58;1.35;;;;;;;;;;4936342;29;20203;-65
2022/04/03 04:54:10;;;;;;;1.58;1.23;;;;;;;;;;4936399;29;20172;-65
2022/04/03 04:56:36;;;;;;;3.05;1.40;;;;;;;;;;4936545;29;20177;-65
2022/04/03 04:59:03;;;;;;;2.40;1.50;;;;;;;;;;4936354;29;20259;-65
2022/04/03 05:01:29;;;;;;;3.40;1.40;;;;;;;;;;4936307;29;20179;-65
2022/04/03 05:03:55;;;;;;;4.40;1.25;;;;;;;;;;4936305;29;20200;-65
2022/04/03 05:06:23;;;;;;;3.47;1.30;;;;;;;;;;4936281;29;20180;-65
2022/04/03 05:08:50;;;;;;;2.50;1.15;;;;;;;;;;4936414;29;20177;-65
2022/04/03 05:11:16;;;;;;;2.80;1.50;;;;;;;;;;4936077;29;20172;-65
2022/04/03 05:13:42;;;;;;;2.63;1.52;;;;;;;;;;4936281;29;20186;-65
2022/04/03 05:16:08;;;;;;;1.60;1.17;;;;;;;;;;4936417;29;20228;-65
2022/04/03 05:18:37;;;;;;;2.03;1.40;;;;;;;;;;4940322;29;20176;-63
2022/04/03 05:21:04;;;;;;;3.10;1.60;;;;;;;;;;4940222;29;20233;-65
2022/04/03 05:23:30;;;;;;;2.78;1.60;;;;;;;;;;4940360;29;20248;-66
2022/04/03 05:25:56;;;;;;;6.07;2.17;;;;;;;;;;4940267;29;20547;-65
2022/04/03 05:28:22;;;;;;;2.60;1.75;;;;;;;;;;4940268;29;20173;-65
2022/04/03 05:30:48;;;;;;;3.97;2.10;;;;;;;;;;4940016;29;20173;-65
2022/04/03 05:33:15;;;;;;;3.25;2.00;;;;;;;;;;4940328;29;20179;-65
2022/04/03 05:35:41;;;;;;;3.25;2.05;;;;;;;;;;4940261;29;20169;-63
2022/04/03 05:38:07;;;;;;;4.82;2.60;;;;;;;;;;4940062;29;20256;-63
2022/04/03 05:40:33;;;;;;;3.47;2.08;;;;;;;;;;4939908;29;20665;-63
2022/04/03 05:42:59;;;;;;;3.67;2.22;;;;;;;;;;4940113;29;20497;-63
2022/04/03 05:45:25;;;;;;;6.15;2.55;;;;;;;;;;4940028;29;20204;-65
2022/04/03 05:47:51;;;;;;;3.05;2.00;;;;;;;;;;4938977;29;20597;-65
2022/04/03 05:50:19;;;;;;;2.50;2.13;;;;;;;;;;4939716;29;20172;-63
2022/04/03 05:52:48;;;;;;;4.47;2.50;;;;;;;;;;4940062;29;20244;-63
2022/04/03 05:55:18;;;;;;;3.63;2.15;;;;;;;;;;4940376;29;20188;-65
2022/04/03 05:57:45;;;;;;;3.33;2.45;;;;;;;;;;4939864;29;20252;-64
2022/04/03 06:00:12;;;;;;;5.47;2.38;;;;;;;;;;4939507;29;20519;-64
2022/04/03 06:02:48;;;;;;;4.63;2.40;;;;;;;;;;4940398;29;20184;-64
2022/04/03 06:05:15;;;;;;;4.30;2.45;;;;;;;;;;4939928;29;20200;-65
2022/04/03 06:07:41;;;;;;;3.22;2.40;;;;;;;;;;4939972;29;20169;-65
2022/04/03 06:10:07;;;;;;;3.40;2.58;;;;;;;;;;4939524;29;20203;-65
2022/04/03 06:12:34;;;;;;;4.00;2.58;;;;;;;;;;4939229;29;20165;-65
2022/04/03 06:15:00;;;;;;;3.45;2.60;;;;;;;;;;4939476;29;20176;-65
2022/04/03 06:17:26;;;;;;;4.25;3.17;;;;;;;;;;4939067;29;20185;-65
2022/04/03 06:19:52;;;;;;;3.97;3.15;;;;;;;;;;4939188;29;20252;-65
2022/04/03 06:22:17;;;;;;;5.88;3.00;;;;;;;;;;4939063;29;20173;-65
2022/04/03 06:24:43;;;;;;;4.00;2.80;;;;;;;;;;4939214;29;20196;-65
2022/04/03 06:27:09;;;;;;;4.95;3.05;;;;;;;;;;4938871;29;20177;-65
2022/04/03 06:29:35;;;;;;;4.22;3.20;;;;;;;;;;4938343;29;20197;-66
2022/04/03 06:32:01;;;;;;;3.38;2.67;;;;;;;;;;4938799;29;20165;-66
2022/04/03 06:34:27;;;;;;;4.10;3.20;;;;;;;;;;4938883;29;20169;-63
2022/04/03 06:36:53;;;;;;;6.72;3.30;;;;;;;;;;4939148;29;20237;-63
2022/04/03 06:39:19;;;;;;;3.13;2.78;;;;;;;;;;4939336;29;20177;-64
2022/04/03 06:41:45;;;;;;;3.78;3.08;;;;;;;;;;4939088;29;20173;-65
2022/04/03 06:44:12;;;;;;;5.03;3.38;;;;;;;;;;4938814;29;20204;-63
2022/04/03 06:46:38;;;;;;;4.88;3.00;;;;;;;;;;4938784;29;20224;-64
2022/04/03 06:49:04;;;;;;;3.90;3.30;;;;;;;;;;4938981;29;20179;-63
2022/04/03 06:51:30;;;;;;;4.65;3.47;;;;;;;;;;4939385;29;20166;-65
2022/04/03 06:53:55;;;;;;;4.95;2.95;;;;;;;;;;4939339;29;20176;-63
2022/04/03 06:56:21;;;;;;;4.82;3.35;;;;;;;;;;4938540;29;20177;-63
2022/04/03 06:58:47;;;;;;;4.88;3.33;;;;;;;;;;4938591;29;20173;-65
2022/04/03 07:01:13;;;;;;;6.28;3.33;;;;;;;;;;4938651;29;20203;-63
2022/04/03 07:03:39;;;;;;;3.83;3.15;;;;;;;;;;4938523;29;20247;-65
2022/04/03 07:06:05;;;;;;;5.05;2.95;;;;;;;;;;4938253;29;20261;-64
2022/04/03 07:08:31;;;;;;;4.05;2.20;;;;;;;;;;4938291;29;20180;-64
2022/04/03 07:10:58;;;;;;;6.45;2.97;;;;;;;;;;4938171;29;20632;-65
2022/04/03 07:13:23;;;;;;;4.18;2.50;;;;;;;;;;4938282;29;20183;-65
2022/04/03 07:15:49;;;;;;;4.78;2.63;;;;;;;;;;4938522;29;20173;-65
2022/04/03 07:18:16;;;;;;;4.05;2.70;;;;;;;;;;4937900;29;20574;-65
2022/04/03 07:20:43;;;;;;;4.32;2.67;;;;;;;;;;4938129;28;20184;-65
2022/04/03 07:23:08;;;;;;;4.93;2.72;;;;;;;;;;4937970;29;20201;-65
2022/04/03 07:25:34;;;;;;;4.43;2.67;;;;;;;;;;4937977;29;20235;-65
2022/04/03 07:28:00;;;;;;;4.20;2.50;;;;;;;;;;4938202;29;20633;-65
2022/04/03 07:30:26;;;;;;;4.97;2.60;;;;;;;;;;4938270;29;20161;-65
2022/04/03 07:32:52;;;;;;;4.93;2.67;;;;;;;;;;4938188;29;20232;-65
2022/04/03 07:35:18;;;;;;;6.03;2.92;;;;;;;;;;4938249;29;20500;-65
2022/04/03 07:37:44;;;;;;;3.35;2.35;;;;;;;;;;4937980;29;20168;-65
2022/04/03 07:40:11;;;;;;;3.00;2.70;;;;;;;;;;4936820;29;20177;-65
2022/04/03 07:42:39;;;;;;;4.43;2.30;;;;;;;;;;4938825;29;20179;-65
2022/04/03 07:45:05;;;;;;;4.05;2.75;;;;;;;;;;4944353;29;20204;-65
2022/04/03 07:47:31;;;;;;;5.03;2.63;;;;;;;;;;4938519;29;20211;-65
2022/04/03 07:49:58;;;;;;;3.92;2.55;;;;;;;;;;4936899;29;20204;-64
2022/04/03 07:52:24;;;;;;;5.30;2.38;;;;;;;;;;4937764;29;20176;-65
2022/04/03 07:54:50;;;;;;;4.30;2.25;;;;;;;;;;4937357;29;20538;-64
2022/04/03 07:57:19;;;;;;;3.33;2.20;;;;;;;;;;4937239;29;20161;-65
2022/04/03 07:59:45;;;;;;;3.25;2.40;;;;;;;;;;4937494;29;20169;-65
2022/04/03 08:02:12;;;;;;;2.55;2.03;;;;;;;;;;4937302;29;20235;-65
2022/04/03 08:04:38;;;;;;;3.05;2.15;;;;;;;;;;4937489;29;20207;-65
2022/04/03 08:07:04;;;;;;;5.40;1.80;;;;;;;;;;4936999;29;20161;-65
2022/04/03 08:09:30;;;;;;;1.92;1.73;;;;;;;;;;4937102;29;20506;-65
2022/04/03 08:11:56;;;;;;;2.75;1.73;;;;;;;;;;4937276;29;20164;-65
2022/04/03 08:14:22;;;;;;;2.80;1.52;;;;;;;;;;4937312;29;20196;-65
2022/04/03 08:16:48;;;;;;;3.67;1.73;;;;;;;;;;4936861;29;20250;-65
2022/04/03 08:19:14;;;;;;;3.15;1.85;;;;;;;;;;4937065;29;20608;-65
2022/04/03 08:21:40;;;;;;;2.83;1.70;;;;;;;;;;4936967;29;20629;-65
2022/04/03 08:24:06;;;;;;;3.35;1.73;;;;;;;;;;4937202;29;20268;-65
2022/04/03 08:26:32;;;;;;;4.15;1.90;;;;;;;;;;4936997;29;20173;-65
2022/04/03 08:28:58;;;;;;;1.60;1.40;;;;;;;;;;4936969;29;20188;-65
2022/04/03 08:31:24;;;;;;;2.53;1.77;;;;;;;;;;4936617;29;20630;-65
2022/04/03 08:33:51;;;;;;;1.35;1.20;;;;;;;;;;4936612;29;20165;-65
2022/04/03 08:36:17;;;;;;;3.40;1.45;;;;;;;;;;4936966;29;20197;-65
2022/04/03 08:38:43;;;;;;;1.50;1.20;;;;;;;;;;4936930;29;20205;-65
2022/04/03 08:41:09;;;;;;;1.80;1.17;;;;;;;;;;4936617;29;20169;-65
2022/04/03 08:43:35;;;;;;;2.65;1.80;;;;;;;;;;4936467;29;20621;-65
2022/04/03 08:46:02;;;;;;;3.70;0.95;;;;;;;;;;4936962;29;20180;-65
2022/04/03 08:48:30;;;;;;;2.10;1.10;;;;;;;;;;4936659;29;20560;-65
2022/04/03 08:50:57;;;;;;;2.05;0.70;;;;;;;;;;4936509;29;20173;-64
2022/04/03 08:53:25;;;;;;;2.72;1.27;;;;;;;;;;4936663;29;20500;-64
2022/04/03 08:55:50;;;;;;;2.17;1.30;;;;;;;;;;4936964;29;20279;-64
2022/04/03 08:58:17;;;;;;;2.42;1.50;;;;;;;;;;4936788;29;20500;-65
2022/04/03 09:00:43;;;;;;;2.53;1.30;;;;;;;;;;4936588;29;20264;-64
2022/04/03 09:03:12;;;;;;;2.97;1.30;;;;;;;;;;4936753;29;20328;-66
2022/04/03 09:05:39;;;;;;;5.40;1.40;;;;;;;;;;4937178;29;20196;-63
2022/04/03 09:08:05;;;;;;;3.40;1.33;;;;;;;;;;4936461;29;20235;-64
2022/04/03 09:10:31;;;;;;;3.72;1.33;;;;;;;;;;4936694;29;20622;-64
2022/04/03 09:12:57;;;;;;;1.50;1.30;;;;;;;;;;4936430;29;20187;-64
2022/04/03 09:15:24;;;;;;;4.82;1.52;;;;;;;;;;4936699;29;20165;-64
2022/04/03 09:17:54;;;;;;;2.22;1.58;;;;;;;;;;4936407;29;20539;-63
2022/04/03 09:20:22;;;;;;;3.67;1.60;;;;;;;;;;4936303;29;20172;-64
2022/04/03 09:22:52;;;;;;;2.95;1.42;;;;;;;;;;4936478;29;20180;-65
2022/04/03 09:25:23;;;;;;;2.40;1.50;;;;;;;;;;4936658;29;20196;-64
2022/04/03 09:27:50;;;;;;;2.80;2.15;;;;;;;;;;4936192;29;20619;-65
2022/04/03 09:30:17;;;;;;;3.47;1.60;;;;;;;;;;4936411;29;20200;-64
2022/04/03 09:32:50;;;;;;;2.33;1.50;;;;;;;;;;4936237;29;20216;-64
2022/04/03 09:35:17;;;;;;;2.42;1.50;;;;;;;;;;4936308;29;20168;-64
2022/04/03 09:38:01;;;;;;;5.65;1.50;;;;;;;;;;4936046;29;20180;-65
2022/04/03 09:40:31;;;;;;;2.63;1.75;;;;;;;;;;4936078;29;20183;-65
2022/04/03 09:43:13;;;;;;;2.75;1.45;;;;;;;;;;4936178;29;20188;-65
2022/04/03 09:45:45;;;;;;;5.65;1.95;;;;;;;;;;4936083;29;20525;-65
2022/04/03 09:48:19;;;;;;;2.88;1.20;;;;;;;;;;4936092;29;20188;-65
2022/04/03 09:50:55;;;;;;;3.67;1.50;;;;;;;;;;4936185;29;20207;-65
2022/04/03 09:53:21;;;;;;;2.30;1.70;;;;;;;;;;4935793;29;20251;-65
2022/04/03 09:55:46;;;;;;;3.13;1.42;;;;;;;;;;4936148;29;20308;-65
2022/04/03 09:58:12;;;;;;;2.55;1.90;;;;;;;;;;4935787;29;20169;-65
2022/04/03 10:00:41;;;;;;;4.93;1.80;;;;;;;;;;4935898;29;20260;-65
2022/04/03 10:03:07;;;;;;;4.45;1.75;;;;;;;;;;4935869;29;20168;-65
2022/04/03 10:05:36;;;;;;;2.83;1.40;;;;;;;;;;4939354;29;20185;-65
2022/04/03 10:08:03;;;;;;;3.60;1.60;;;;;;;;;;4939739;29;20169;-65
2022/04/03 10:10:30;;;;;;;4.38;1.67;;;;;;;;;;4939304;29;20169;-65
2022/04/03 10:12:56;;;;;;;2.85;1.50;;;;;;;;;;4939141;29;20205;-65
2022/04/03 10:15:23;;;;;;;3.40;1.80;;;;;;;;;;4939407;29;20210;-65
2022/04/03 10:17:48;;;;;;;5.00;1.80;;;;;;;;;;4939270;29;20284;-65
2022/04/03 10:20:14;;;;;;;3.17;1.25;;;;;;;;;;4939095;29;20253;-65
2022/04/03 10:22:42;;;;;;;3.70;1.55;;;;;;;;;;4939297;29;20547;-65
2022/04/03 10:25:11;;;;;;;6.20;1.55;;;;;;;;;;4938939;29;20220;-65
2022/04/03 10:27:39;;;;;;;3.08;1.40;;;;;;;;;;4939506;29;20176;-65
2022/04/03 10:30:05;;;;;;;2.90;1.45;;;;;;;;;;4938994;29;20165;-65
2022/04/03 10:32:33;;;;;;;3.10;1.67;;;;;;;;;;4938994;29;20632;-65
2022/04/03 10:35:04;;;;;;;3.25;1.65;;;;;;;;;;4938965;29;20177;-65
2022/04/03 10:37:29;;;;;;;2.03;1.60;;;;;;;;;;4938894;29;20177;-64
2022/04/03 10:40:00;;;;;;;4.80;1.90;;;;;;;;;;4938936;29;20324;-65
2022/04/03 10:42:26;;;;;;;3.08;1.42;;;;;;;;;;4938687;29;20176;-64
2022/04/03 10:45:11;;;;;;;2.97;1.50;;;;;;;;;;4938596;29;20525;-65
2022/04/03 10:47:37;;;;;;;2.33;1.58;;;;;;;;;;4938922;29;20168;-64
2022/04/03 10:50:04;;;;;;;3.63;1.60;;;;;;;;;;4938619;29;20169;-64
2022/04/03 10:52:36;;;;;;;3.38;1.40;;;;;;;;;;4939161;29;20173;-65
2022/04/03 10:55:10;;;;;;;3.67;1.50;;;;;;;;;;4939121;29;20180;-64
2022/04/03 10:57:44;;;;;;;3.45;2.22;;;;;;;;;;4938703;29;20184;-64
2022/04/03 11:00:12;;;;;;;2.45;1.45;;;;;;;;;;4938727;29;20197;-64
2022/04/03 11:02:42;;;;;;;3.78;1.45;;;;;;;;;;4938685;29;20196;-64
2022/04/03 11:05:26;;;;;;;2.55;1.55;;;;;;;;;;4938202;29;20283;-64
2022/04/03 11:07:52;;;;;;;2.78;1.60;;;;;;;;;;4938319;29;20172;-65
2022/04/03 11:10:37;;;;;;;2.13;1.60;;;;;;;;;;4938198;29;20256;-64
2022/04/03 11:13:08;;;;;;;2.63;1.40;;;;;;;;;;4938264;29;20190;-65
2022/04/03 11:15:43;;;;;;;2.92;1.50;;;;;;;;;;4937850;29;20200;-65
2022/04/03 11:18:26;;;;;;;2.72;1.50;;;;;;;;;;4937871;29;20172;-65
2022/04/03 11:21:06;;;;;;;2.63;1.40;;;;;;;;;;4938086;29;20184;-65
2022/04/03 11:23:34;;;;;;;2.03;1.30;;;;;;;;;;4938033;29;20157;-64
2022/04/03 11:26:00;;;;;;;3.42;1.60;;;;;;;;;;4937654;29;20251;-64
2022/04/03 11:28:26;;;;;;;5.80;1.40;;;;;;;;;;4937936;29;20203;-64
2022/04/03 11:30:52;;;;;;;2.40;1.40;;;;;;;;;;4937811;29;20173;-64
2022/04/03 11:33:18;;;;;;;2.47;0.93;;;;;;;;;;4937836;29;20191;-65
2022/04/03 11:35:46;;;;;;;1.80;0.60;;;;;;;;;;4937726;29;20201;-65
2022/04/03 11:38:12;;;;;;;4.13;0.85;;;;;;;;;;4937555;29;20165;-65
2022/04/03 11:40:40;;;;;;;6.03;2.05;;;;;;;;;;4937385;29;20551;-65
2022/04/03 11:43:16;;;;;;;1.45;0.98;;;;;;;;;;4937585;29;20165;-65
2022/04/03 11:45:58;;;;;;;2.15;0.80;;;;;;;;;;4937478;29;20215;-65
2022/04/03 11:48:25;;;;;;;3.28;0.90;;;;;;;;;;4937361;29;20169;-65
2022/04/03 11:51:03;;;;;;;1.48;0.82;;;;;;;;;;4937618;29;20177;-65
2022/04/03 11:53:29;;;;;;;2.42;1.02;;;;;;;;;;4937427;29;20157;-65
2022/04/03 11:55:56;;;;;;;2.03;1.05;;;;;;;;;;4937154;29;20542;-65
2022/04/03 11:58:30;;;;;;;1.75;1.10;;;;;;;;;;4937568;29;20210;-65
2022/04/03 12:00:57;;;;;;;3.53;1.02;;;;;;;;;;4937111;29;20541;-65
2022/04/03 12:03:27;;;;;;;2.58;0.70;;;;;;;;;;4937157;29;20621;-65
2022/04/03 12:06:09;;;;;;;3.30;0.88;;;;;;;;;;4937309;29;20212;-65
2022/04/03 12:08:41;;;;;;;2.40;0.90;;;;;;;;;;4937015;29;20206;-65
2022/04/03 12:11:22;;;;;;;1.73;0.80;;;;;;;;;;4937269;29;20169;-65
2022/04/03 12:13:49;;;;;;;0.63;0.57;;;;;;;;;;4937142;29;20176;-65
2022/04/03 12:16:16;;;;;;;3.13;0.80;;;;;;;;;;4936711;29;20256;-65
2022/04/03 12:18:55;;;;;;;2.60;1.05;;;;;;;;;;4937063;29;20176;-65
2022/04/03 12:21:36;;;;;;;2.72;0.95;;;;;;;;;;4936799;29;20177;-65
2022/04/03 12:24:03;;;;;;;4.97;1.35;;;;;;;;;;4937216;29;20512;-65
2022/04/03 12:26:30;;;;;;;4.63;1.20;;;;;;;;;;4936221;29;20594;-65
2022/04/03 12:28:56;;;;;;;1.10;1.00;;;;;;;;;;4936999;29;20280;-65
2022/04/03 12:31:26;;;;;;;1.05;0.70;;;;;;;;;;4936772;29;20204;-65
2022/04/03 12:34:02;;;;;;;2.03;0.75;;;;;;;;;;4936767;29;20273;-65
2022/04/03 12:36:35;;;;;;;2.97;0.95;;;;;;;;;;4936441;29;20171;-65
2022/04/03 12:39:01;;;;;;;1.58;0.80;;;;;;;;;;4936606;29;20158;-65
2022/04/03 12:41:27;;;;;;;1.30;0.70;;;;;;;;;;4936401;29;20263;-65
2022/04/03 12:43:56;;;;;;;1.35;0.70;;;;;;;;;;4936575;29;20487;-65
2022/04/03 12:46:22;;;;;;;1.35;0.70;;;;;;;;;;4936683;29;20229;-65
2022/04/03 12:48:51;;;;;;;1.45;0.82;;;;;;;;;;4936422;29;20632;-65
2022/04/03 12:51:17;;;;;;;1.98;0.50;;;;;;;;;;4936505;29;20268;-65
2022/04/03 12:53:51;;;;;;;2.35;0.60;;;;;;;;;;4936407;29;20251;-65
2022/04/03 12:56:17;;;;;;;2.30;0.70;;;;;;;;;;4936474;29;20173;-65
2022/04/03 12:58:48;;;;;;;2.20;0.60;;;;;;;;;;4936582;29;20461;-65
2022/04/03 13:01:14;;;;;;;1.10;0.47;;;;;;;;;;4936390;29;20208;-65
2022/04/03 13:03:51;;;;;;;1.73;0.70;;;;;;;;;;4936797;29;20509;-68
2022/04/03 13:06:28;;;;;;;1.25;0.60;;;;;;;;;;4936370;29;20627;-65
2022/04/03 13:09:06;;;;;;;3.63;0.75;;;;;;;;;;4936311;29;20179;-65
2022/04/03 13:11:34;;;;;;;1.98;0.70;;;;;;;;;;4936275;29;20232;-65
2022/04/03 13:14:16;;;;;;;2.28;0.80;;;;;;;;;;4936569;29;20176;-64
2022/04/03 13:16:42;;;;;;;1.65;0.60;;;;;;;;;;4936271;29;20192;-65
2022/04/03 13:19:08;;;;;;;1.40;0.55;;;;;;;;;;4936170;29;20173;-65
2022/04/03 13:21:35;;;;;;;4.68;0.77;;;;;;;;;;4936147;29;20192;-65
2022/04/03 13:24:01;;;;;;;1.02;0.65;;;;;;;;;;4935833;29;20200;-65
2022/04/03 13:26:27;;;;;;;0.93;0.50;;;;;;;;;;4935882;29;20197;-65
2022/04/03 13:28:53;;;;;;;2.63;0.50;;;;;;;;;;4936245;29;20255;-65
2022/04/03 13:31:19;;;;;;;2.05;0.40;;;;;;;;;;4936290;29;20180;-65
2022/04/03 13:33:45;;;;;;;2.45;0.75;;;;;;;;;;4936716;29;20199;-65
2022/04/03 13:36:11;;;;;;;2.50;0.60;;;;;;;;;;4936395;29;20180;-65
2022/04/03 13:38:37;;;;;;;1.60;0.60;;;;;;;;;;4937479;29;20169;-65
2022/04/03 13:41:03;;;;;;;2.50;0.80;;;;;;;;;;4939826;29;20228;-64
2022/04/03 13:43:29;;;;;;;0.70;0.70;;;;;;;;;;4939986;29;20260;-65
2022/04/03 13:45:59;;;;;;;1.75;0.50;;;;;;;;;;4940123;29;20591;-65
2022/04/03 13:48:26;;;;;;;1.10;0.60;;;;;;;;;;4940550;29;20169;-65
2022/04/03 13:50:53;;;;;;;1.83;0.60;;;;;;;;;;4939884;29;20504;-65
2022/04/03 13:53:19;;;;;;;1.90;0.90;;;;;;;;;;4940030;29;20173;-65
2022/04/03 13:55:45;;;;;;;2.38;0.70;;;;;;;;;;4939840;29;20173;-65
2022/04/03 13:58:11;;;;;;;2.67;0.70;;;;;;;;;;4940080;29;20513;-64
2022/04/03 14:00:37;;;;;;;3.17;0.90;;;;;;;;;;4939627;29;20169;-64
2022/04/03 14:03:03;;;;;;;1.65;0.68;;;;;;;;;;4939768;29;20741;-64
2022/04/03 14:05:29;;;;;;;1.75;1.05;;;;;;;;;;4939509;29;20200;-64
2022/04/03 14:07:55;;;;;;;2.22;0.70;;;;;;;;;;4939952;29;20483;-65
2022/04/03 14:10:21;;;;;;;0.60;0.50;;;;;;;;;;4939847;29;20169;-64
2022/04/03 14:12:48;;;;;;;2.58;0.88;;;;;;;;;;4939736;29;20192;-65
2022/04/03 14:15:14;;;;;;;3.13;1.00;;;;;;;;;;4939899;29;20264;-65
2022/04/03 14:17:40;;;;;;;3.13;0.80;;;;;;;;;;4939870;29;20233;-65
2022/04/03 14:20:08;;;;;;;3.65;0.90;;;;;;;;;;4939970;29;20227;-64
2022/04/03 14:22:34;;;;;;;3.15;0.88;;;;;;;;;;4939927;29;20189;-65
2022/04/03 14:25:00;;;;;;;1.08;0.57;;;;;;;;;;4939434;29;20263;-64
2022/04/03 14:27:26;;;;;;;1.48;0.70;;;;;;;;;;4939738;29;20204;-64
2022/04/03 14:29:52;;;;;;;0.73;0.68;;;;;;;;;;4939367;29;20188;-63
2022/04/03 14:32:18;;;;;;;2.30;0.73;;;;;;;;;;4939830;29;20165;-65
2022/04/03 14:34:44;;;;;;;0.93;0.70;;;;;;;;;;4939477;29;20491;-64
2022/04/03 14:37:10;;;;;;;1.30;0.80;;;;;;;;;;4938980;29;20502;-65
2022/04/03 14:39:36;;;;;;;1.63;0.68;;;;;;;;;;4939133;29;20176;-65
2022/04/03 14:42:02;;;;;;;0.80;0.70;;;;;;;;;;4939389;29;20177;-65
2022/04/03 14:44:28;;;;;;;1.15;0.70;;;;;;;;;;4939430;29;20205;-65